AAL1813 KMIA-KDCA
Flight info
| Callsign | AAL1813 |
|---|---|
| Flight time | 2h 1m |
| Altitude | 35000 |
| Route | ALTNN2 DUCEN/N0462F370 Q87 RAYVO Q113 AARNN WAVES CAPSS4 |
| Aircraft | B738/M-SDE2E3FGHIRWXY/LB1 |
Departure
| Time | 2026-05-08 01:17 |
|---|---|
| Airport | Miami International Airport (KMIA) |
Arrival
| Time | 2026-05-08 03:18 |
|---|---|
| Airport | Ronald Reagan Washington National Airport (KDCA) |
| Time | Latitude | Longitude | Altitude | Speed | Heading |
|---|---|---|---|---|---|
| 2026-05-08 00:40 | 25.79801 | -80.27469 | 19 ft | 0 kts | 180° |
| 2026-05-08 01:08 | 25.79818 | -80.27469 | 22 ft | 4 kts | 180° |
| 2026-05-08 01:08 | 25.79845 | -80.27469 | 21 ft | 4 kts | 180° |
| 2026-05-08 01:08 | 25.79872 | -80.27469 | 20 ft | 4 kts | 180° |
| 2026-05-08 01:09 | 25.79891 | -80.27469 | 20 ft | 0 kts | 180° |
| 2026-05-08 01:11 | 25.79888 | -80.27470 | 20 ft | 2 kts | 191° |
| 2026-05-08 01:11 | 25.79877 | -80.27493 | 20 ft | 6 kts | 275° |
| 2026-05-08 01:12 | 25.79931 | -80.27506 | 18 ft | 12 kts | 7° |
| 2026-05-08 01:12 | 25.80040 | -80.27499 | 16 ft | 18 kts | 336° |
| 2026-05-08 01:12 | 25.80066 | -80.27623 | 16 ft | 17 kts | 266° |
| 2026-05-08 01:12 | 25.80059 | -80.27755 | 15 ft | 18 kts | 266° |
| 2026-05-08 01:13 | 25.80051 | -80.27936 | 11 ft | 28 kts | 268° |
| 2026-05-08 01:13 | 25.80042 | -80.28151 | 13 ft | 27 kts | 267° |
| 2026-05-08 01:13 | 25.80034 | -80.28352 | 14 ft | 25 kts | 268° |
| 2026-05-08 01:13 | 25.80028 | -80.28540 | 16 ft | 24 kts | 269° |
| 2026-05-08 01:14 | 25.80021 | -80.28717 | 21 ft | 23 kts | 268° |
| 2026-05-08 01:14 | 25.80012 | -80.28889 | 20 ft | 22 kts | 266° |
| 2026-05-08 01:14 | 25.80005 | -80.29057 | 20 ft | 21 kts | 267° |
| 2026-05-08 01:14 | 25.79998 | -80.29227 | 20 ft | 23 kts | 268° |
| 2026-05-08 01:15 | 25.79991 | -80.29405 | 15 ft | 24 kts | 267° |
| 2026-05-08 01:15 | 25.79983 | -80.29586 | 13 ft | 23 kts | 267° |
| 2026-05-08 01:15 | 25.79978 | -80.29761 | 14 ft | 22 kts | 268° |
| 2026-05-08 01:15 | 25.79969 | -80.29929 | 11 ft | 22 kts | 268° |
| 2026-05-08 01:16 | 25.79981 | -80.30084 | 14 ft | 20 kts | 300° |
| 2026-05-08 01:16 | 25.80062 | -80.30113 | 14 ft | 10 kts | 42° |
| 2026-05-08 01:16 | 25.80074 | -80.30035 | 12 ft | 17 kts | 89° |
| 2026-05-08 01:16 | 25.80086 | -80.29751 | 13 ft | 68 kts | 87° |
| 2026-05-08 01:17 | 25.80119 | -80.28964 | 20 ft | 133 kts | 87° |
| 2026-05-08 01:17 | 25.80170 | -80.27774 | 281 ft | 165 kts | 88° |
| 2026-05-08 01:17 | 25.80257 | -80.26487 | 962 ft | 170 kts | 89° |
| 2026-05-08 01:17 | 25.80327 | -80.25126 | 1465 ft | 189 kts | 88° |
| 2026-05-08 01:18 | 25.80398 | -80.23574 | 1832 ft | 212 kts | 88° |
| 2026-05-08 01:18 | 25.80468 | -80.21834 | 2037 ft | 239 kts | 89° |
| 2026-05-08 01:18 | 25.80531 | -80.19892 | 2285 ft | 262 kts | 88° |
| 2026-05-08 01:18 | 25.80981 | -80.17907 | 2903 ft | 272 kts | 59° |
| 2026-05-08 01:19 | 25.82277 | -80.16407 | 3693 ft | 270 kts | 27° |
| 2026-05-08 01:19 | 25.84052 | -80.15869 | 4587 ft | 264 kts | 2° |
| 2026-05-08 01:19 | 25.85887 | -80.15792 | 5413 ft | 265 kts | 0° |
| 2026-05-08 01:19 | 25.87736 | -80.15747 | 6058 ft | 273 kts | 1° |
| 2026-05-08 01:20 | 25.89664 | -80.15792 | 6669 ft | 281 kts | 349° |
| 2026-05-08 01:20 | 25.91545 | -80.16408 | 7369 ft | 283 kts | 341° |
| 2026-05-08 01:20 | 25.93428 | -80.17103 | 8059 ft | 286 kts | 342° |
| 2026-05-08 01:20 | 25.95337 | -80.17786 | 8727 ft | 290 kts | 342° |
| 2026-05-08 01:21 | 25.97277 | -80.18469 | 9408 ft | 294 kts | 342° |
| 2026-05-08 01:21 | 25.99258 | -80.19112 | 10049 ft | 298 kts | 348° |
| 2026-05-08 01:21 | 26.01359 | -80.19445 | 10364 ft | 315 kts | 354° |
| 2026-05-08 01:21 | 26.03593 | -80.19642 | 10506 ft | 336 kts | 355° |
| 2026-05-08 01:22 | 26.05993 | -80.19830 | 10652 ft | 355 kts | 355° |
| 2026-05-08 01:22 | 26.08513 | -80.20045 | 10820 ft | 370 kts | 355° |
| 2026-05-08 01:22 | 26.11110 | -80.20287 | 11237 ft | 376 kts | 354° |
| 2026-05-08 01:22 | 26.13734 | -80.20549 | 11788 ft | 378 kts | 354° |
| 2026-05-08 01:23 | 26.16371 | -80.20821 | 12380 ft | 380 kts | 354° |
| 2026-05-08 01:23 | 26.19015 | -80.21095 | 12951 ft | 382 kts | 353° |
| 2026-05-08 01:23 | 26.21641 | -80.21354 | 13507 ft | 385 kts | 354° |
| 2026-05-08 01:23 | 26.24334 | -80.21595 | 14054 ft | 388 kts | 354° |
| 2026-05-08 01:24 | 26.27035 | -80.21830 | 14594 ft | 390 kts | 354° |
| 2026-05-08 01:24 | 26.29748 | -80.22067 | 15162 ft | 391 kts | 354° |
| 2026-05-08 01:24 | 26.32473 | -80.22309 | 15721 ft | 393 kts | 353° |
| 2026-05-08 01:24 | 26.35212 | -80.22554 | 16280 ft | 395 kts | 353° |
| 2026-05-08 01:25 | 26.37965 | -80.22802 | 16837 ft | 397 kts | 353° |
| 2026-05-08 01:25 | 26.40687 | -80.23069 | 17372 ft | 399 kts | 352° |
| 2026-05-08 01:25 | 26.43461 | -80.23358 | 17907 ft | 401 kts | 352° |
| 2026-05-08 01:25 | 26.46254 | -80.23652 | 18410 ft | 404 kts | 352° |
| 2026-05-08 01:26 | 26.49060 | -80.23945 | 18854 ft | 406 kts | 352° |
| 2026-05-08 01:26 | 26.51880 | -80.24237 | 19292 ft | 408 kts | 351° |
| 2026-05-08 01:26 | 26.54722 | -80.24530 | 19724 ft | 411 kts | 351° |
| 2026-05-08 01:26 | 26.57573 | -80.24855 | 20126 ft | 413 kts | 349° |
| 2026-05-08 01:27 | 26.60419 | -80.25315 | 20535 ft | 414 kts | 347° |
| 2026-05-08 01:27 | 26.63243 | -80.25822 | 20951 ft | 416 kts | 347° |
| 2026-05-08 01:27 | 26.66116 | -80.26328 | 21355 ft | 418 kts | 347° |
| 2026-05-08 01:27 | 26.69006 | -80.26818 | 21740 ft | 421 kts | 347° |
| 2026-05-08 01:28 | 26.71880 | -80.27447 | 22101 ft | 419 kts | 339° |
| 2026-05-08 01:28 | 26.74631 | -80.28541 | 22494 ft | 418 kts | 335° |
| 2026-05-08 01:28 | 26.77348 | -80.29742 | 22895 ft | 420 kts | 334° |
| 2026-05-08 01:28 | 26.80037 | -80.30937 | 23241 ft | 422 kts | 334° |
| 2026-05-08 01:29 | 26.82782 | -80.32133 | 23587 ft | 424 kts | 334° |
| 2026-05-08 01:29 | 26.85554 | -80.33312 | 23884 ft | 426 kts | 335° |
| 2026-05-08 01:29 | 26.88334 | -80.34479 | 24184 ft | 428 kts | 335° |
| 2026-05-08 01:29 | 26.91127 | -80.35647 | 24457 ft | 430 kts | 335° |
| 2026-05-08 01:30 | 26.93938 | -80.36823 | 24722 ft | 432 kts | 335° |
| 2026-05-08 01:30 | 26.96779 | -80.37988 | 24997 ft | 434 kts | 335° |
| 2026-05-08 01:30 | 26.99626 | -80.39131 | 25274 ft | 436 kts | 336° |
| 2026-05-08 01:30 | 27.02490 | -80.40276 | 25531 ft | 437 kts | 335° |
| 2026-05-08 01:31 | 27.05365 | -80.41430 | 25802 ft | 439 kts | 335° |
| 2026-05-08 01:31 | 27.08214 | -80.42579 | 26063 ft | 441 kts | 335° |
| 2026-05-08 01:31 | 27.11098 | -80.43772 | 26322 ft | 441 kts | 334° |
| 2026-05-08 01:31 | 27.13960 | -80.45025 | 26554 ft | 443 kts | 334° |
| 2026-05-08 01:32 | 27.16834 | -80.46311 | 26785 ft | 445 kts | 334° |
| 2026-05-08 01:32 | 27.19723 | -80.47607 | 27028 ft | 447 kts | 334° |
| 2026-05-08 01:32 | 27.22618 | -80.48899 | 27263 ft | 448 kts | 334° |
| 2026-05-08 01:32 | 27.25520 | -80.50188 | 27489 ft | 450 kts | 334° |
| 2026-05-08 01:33 | 27.28444 | -80.51483 | 27704 ft | 452 kts | 334° |
| 2026-05-08 01:33 | 27.31380 | -80.52781 | 27920 ft | 454 kts | 334° |
| 2026-05-08 01:33 | 27.34325 | -80.54084 | 28145 ft | 455 kts | 334° |
| 2026-05-08 01:33 | 27.37252 | -80.55377 | 28347 ft | 457 kts | 334° |
| 2026-05-08 01:34 | 27.40247 | -80.56625 | 28564 ft | 459 kts | 335° |
| 2026-05-08 01:34 | 27.43267 | -80.57824 | 28864 ft | 459 kts | 336° |
| 2026-05-08 01:34 | 27.46279 | -80.58995 | 29221 ft | 458 kts | 336° |
| 2026-05-08 01:34 | 27.49299 | -80.60168 | 29551 ft | 457 kts | 336° |
| 2026-05-08 01:35 | 27.52306 | -80.61343 | 29857 ft | 456 kts | 335° |
| 2026-05-08 01:35 | 27.55274 | -80.62511 | 30137 ft | 456 kts | 335° |
| 2026-05-08 01:35 | 27.58274 | -80.63699 | 30359 ft | 457 kts | 335° |
| 2026-05-08 01:35 | 27.61275 | -80.64893 | 30596 ft | 457 kts | 335° |
| 2026-05-08 01:36 | 27.64273 | -80.66088 | 30897 ft | 456 kts | 335° |
| 2026-05-08 01:36 | 27.67265 | -80.67281 | 31221 ft | 454 kts | 335° |
| 2026-05-08 01:36 | 27.70245 | -80.68470 | 31521 ft | 453 kts | 335° |
| 2026-05-08 01:36 | 27.73217 | -80.69658 | 31796 ft | 452 kts | 335° |
| 2026-05-08 01:37 | 27.76151 | -80.70831 | 32093 ft | 452 kts | 335° |
| 2026-05-08 01:37 | 27.79115 | -80.72016 | 32412 ft | 450 kts | 335° |
| 2026-05-08 01:37 | 27.82066 | -80.73197 | 32725 ft | 449 kts | 335° |
| 2026-05-08 01:37 | 27.85008 | -80.74375 | 33026 ft | 448 kts | 335° |
| 2026-05-08 01:38 | 27.87945 | -80.75551 | 33357 ft | 447 kts | 335° |
| 2026-05-08 01:38 | 27.90871 | -80.76723 | 33675 ft | 445 kts | 335° |
| 2026-05-08 01:38 | 27.93798 | -80.77897 | 33966 ft | 445 kts | 334° |
| 2026-05-08 01:38 | 27.96677 | -80.79053 | 34212 ft | 444 kts | 334° |
| 2026-05-08 01:39 | 27.99591 | -80.80223 | 34456 ft | 444 kts | 334° |
| 2026-05-08 01:39 | 28.02511 | -80.81396 | 34709 ft | 443 kts | 334° |
| 2026-05-08 01:39 | 28.05419 | -80.82565 | 34958 ft | 442 kts | 334° |
| 2026-05-08 01:39 | 28.08315 | -80.83730 | 35188 ft | 442 kts | 334° |
| 2026-05-08 01:40 | 28.11216 | -80.84897 | 35438 ft | 441 kts | 334° |
| 2026-05-08 01:40 | 28.14117 | -80.86065 | 35677 ft | 441 kts | 334° |
| 2026-05-08 01:40 | 28.17002 | -80.87227 | 35889 ft | 440 kts | 334° |
| 2026-05-08 01:40 | 28.19855 | -80.88378 | 36091 ft | 440 kts | 334° |
| 2026-05-08 01:41 | 28.22746 | -80.89544 | 36313 ft | 440 kts | 334° |
| 2026-05-08 01:41 | 28.25636 | -80.90710 | 36554 ft | 439 kts | 334° |
| 2026-05-08 01:41 | 28.28512 | -80.91871 | 36801 ft | 438 kts | 334° |
| 2026-05-08 01:41 | 28.31389 | -80.93033 | 36985 ft | 438 kts | 334° |
| 2026-05-08 01:42 | 28.34273 | -80.94200 | 36982 ft | 441 kts | 334° |
| 2026-05-08 01:42 | 28.40022 | -80.96526 | 36989 ft | 439 kts | 334° |
| 2026-05-08 01:43 | 28.45759 | -80.98847 | 36998 ft | 435 kts | 334° |
| 2026-05-08 01:43 | 28.51410 | -81.01138 | 36996 ft | 432 kts | 334° |
| 2026-05-08 01:44 | 28.57073 | -81.03437 | 36993 ft | 430 kts | 333° |
| 2026-05-08 01:44 | 28.62710 | -81.05730 | 36995 ft | 430 kts | 333° |
| 2026-05-08 01:45 | 28.68347 | -81.08025 | 36999 ft | 430 kts | 333° |
| 2026-05-08 01:45 | 28.73957 | -81.10312 | 37003 ft | 432 kts | 333° |
| 2026-05-08 01:46 | 28.79640 | -81.12630 | 36997 ft | 433 kts | 333° |
| 2026-05-08 01:46 | 28.85333 | -81.14954 | 36994 ft | 435 kts | 333° |
| 2026-05-08 01:47 | 28.91019 | -81.17279 | 36993 ft | 436 kts | 333° |
| 2026-05-08 01:47 | 28.96737 | -81.19619 | 37008 ft | 437 kts | 333° |
| 2026-05-08 01:48 | 29.05325 | -81.23138 | 37012 ft | 437 kts | 333° |
| 2026-05-08 01:48 | 29.11046 | -81.25486 | 37012 ft | 436 kts | 333° |
| 2026-05-08 01:49 | 29.16763 | -81.27836 | 37008 ft | 435 kts | 333° |
| 2026-05-08 01:49 | 29.22423 | -81.30166 | 37008 ft | 434 kts | 333° |
| 2026-05-08 01:50 | 29.28164 | -81.32367 | 36986 ft | 442 kts | 342° |
| 2026-05-08 01:50 | 29.34401 | -81.32892 | 36998 ft | 451 kts | 349° |
| 2026-05-08 01:51 | 29.40678 | -81.33143 | 36991 ft | 451 kts | 349° |
| 2026-05-08 01:51 | 29.46908 | -81.33446 | 36993 ft | 450 kts | 349° |
| 2026-05-08 01:52 | 29.53158 | -81.33801 | 36993 ft | 450 kts | 348° |
| 2026-05-08 01:52 | 29.59416 | -81.34175 | 36990 ft | 450 kts | 348° |
| 2026-05-08 01:53 | 29.65681 | -81.34549 | 36983 ft | 450 kts | 348° |
| 2026-05-08 01:53 | 29.71932 | -81.34921 | 36986 ft | 450 kts | 348° |
| 2026-05-08 01:54 | 29.78160 | -81.35291 | 36988 ft | 450 kts | 348° |
| 2026-05-08 01:54 | 29.84425 | -81.35664 | 36984 ft | 450 kts | 348° |
| 2026-05-08 01:55 | 29.90695 | -81.36037 | 36979 ft | 450 kts | 348° |
| 2026-05-08 01:55 | 29.96925 | -81.36409 | 36981 ft | 450 kts | 348° |
| 2026-05-08 01:56 | 30.03191 | -81.36783 | 36984 ft | 450 kts | 348° |
| 2026-05-08 01:56 | 30.09459 | -81.37158 | 36981 ft | 450 kts | 347° |
| 2026-05-08 01:57 | 30.15675 | -81.37529 | 36981 ft | 450 kts | 347° |
| 2026-05-08 01:57 | 30.21836 | -81.37889 | 36975 ft | 450 kts | 347° |
| 2026-05-08 01:58 | 30.27046 | -81.38193 | 36966 ft | 450 kts | 347° |
| 2026-05-08 01:58 | 30.33308 | -81.38559 | 36981 ft | 449 kts | 347° |
| 2026-05-08 01:59 | 30.39514 | -81.38924 | 36982 ft | 449 kts | 347° |
| 2026-05-08 01:59 | 30.45756 | -81.39291 | 36986 ft | 449 kts | 347° |
| 2026-05-08 02:00 | 30.52002 | -81.39637 | 36994 ft | 449 kts | 347° |
| 2026-05-08 02:00 | 30.58247 | -81.39968 | 36989 ft | 449 kts | 347° |
| 2026-05-08 02:01 | 30.64494 | -81.40302 | 36993 ft | 449 kts | 347° |
| 2026-05-08 02:01 | 30.70703 | -81.40636 | 36988 ft | 449 kts | 347° |
| 2026-05-08 02:02 | 30.76958 | -81.40975 | 36991 ft | 449 kts | 347° |
| 2026-05-08 02:02 | 30.83207 | -81.41314 | 36980 ft | 449 kts | 347° |
| 2026-05-08 02:03 | 30.89420 | -81.41651 | 36964 ft | 449 kts | 347° |
| 2026-05-08 02:03 | 30.95680 | -81.41991 | 36972 ft | 450 kts | 347° |
| 2026-05-08 02:04 | 31.01950 | -81.42332 | 36974 ft | 450 kts | 346° |
| 2026-05-08 02:04 | 31.08166 | -81.42670 | 36982 ft | 450 kts | 346° |
| 2026-05-08 02:05 | 31.14453 | -81.43013 | 36978 ft | 451 kts | 346° |
| 2026-05-08 02:05 | 31.20729 | -81.43352 | 36993 ft | 452 kts | 347° |
| 2026-05-08 02:06 | 31.23873 | -81.43185 | 36988 ft | 466 kts | 357° |
| 2026-05-08 02:06 | 31.27094 | -81.42436 | 36997 ft | 478 kts | 5° |
| 2026-05-08 02:06 | 31.30268 | -81.41083 | 36994 ft | 491 kts | 14° |
| 2026-05-08 02:06 | 31.33379 | -81.39406 | 36998 ft | 493 kts | 15° |
| 2026-05-08 02:07 | 31.39569 | -81.35893 | 36983 ft | 494 kts | 15° |
| 2026-05-08 02:07 | 31.45772 | -81.32433 | 36972 ft | 493 kts | 15° |
| 2026-05-08 02:08 | 31.51950 | -81.29063 | 36962 ft | 492 kts | 14° |
| 2026-05-08 02:08 | 31.58170 | -81.25681 | 36950 ft | 492 kts | 14° |
| 2026-05-08 02:09 | 31.64337 | -81.22315 | 36947 ft | 491 kts | 14° |
| 2026-05-08 02:09 | 31.70543 | -81.18920 | 36938 ft | 491 kts | 14° |
| 2026-05-08 02:10 | 31.76746 | -81.15525 | 36930 ft | 491 kts | 14° |
| 2026-05-08 02:10 | 31.82953 | -81.12122 | 36927 ft | 491 kts | 14° |
| 2026-05-08 02:11 | 31.89146 | -81.08721 | 36922 ft | 491 kts | 14° |
| 2026-05-08 02:11 | 31.95307 | -81.05332 | 36924 ft | 492 kts | 14° |
| 2026-05-08 02:12 | 32.01519 | -81.01907 | 36924 ft | 493 kts | 14° |
| 2026-05-08 02:12 | 32.07733 | -80.98440 | 36917 ft | 494 kts | 14° |
| 2026-05-08 02:13 | 32.13910 | -80.94975 | 36930 ft | 495 kts | 14° |
| 2026-05-08 02:13 | 32.20139 | -80.91479 | 36962 ft | 496 kts | 14° |
| 2026-05-08 02:14 | 32.26390 | -80.87969 | 36963 ft | 497 kts | 14° |
| 2026-05-08 02:14 | 32.32600 | -80.84476 | 36967 ft | 497 kts | 14° |
| 2026-05-08 02:15 | 32.38865 | -80.80948 | 36962 ft | 498 kts | 14° |
| 2026-05-08 02:15 | 32.45126 | -80.77415 | 36960 ft | 499 kts | 14° |
| 2026-05-08 02:16 | 32.51358 | -80.73894 | 36959 ft | 499 kts | 14° |
| 2026-05-08 02:16 | 32.57631 | -80.70344 | 36959 ft | 500 kts | 14° |
| 2026-05-08 02:17 | 32.63916 | -80.66780 | 36953 ft | 500 kts | 14° |
| 2026-05-08 02:17 | 32.70203 | -80.63212 | 36946 ft | 500 kts | 14° |
| 2026-05-08 02:18 | 32.76459 | -80.59581 | 36953 ft | 501 kts | 15° |
| 2026-05-08 02:18 | 32.82660 | -80.55881 | 36951 ft | 502 kts | 15° |
| 2026-05-08 02:19 | 32.88908 | -80.52146 | 36957 ft | 501 kts | 14° |
| 2026-05-08 02:19 | 32.95115 | -80.48446 | 36958 ft | 501 kts | 14° |
| 2026-05-08 02:20 | 33.01365 | -80.44723 | 36935 ft | 501 kts | 14° |
| 2026-05-08 02:20 | 33.07613 | -80.40996 | 36932 ft | 501 kts | 14° |
| 2026-05-08 02:21 | 33.13839 | -80.37274 | 36930 ft | 501 kts | 14° |
| 2026-05-08 02:21 | 33.20037 | -80.33563 | 36932 ft | 500 kts | 14° |
| 2026-05-08 02:22 | 33.26272 | -80.29823 | 36922 ft | 500 kts | 14° |
| 2026-05-08 02:22 | 33.32471 | -80.26100 | 36922 ft | 500 kts | 14° |
| 2026-05-08 02:23 | 33.38690 | -80.22358 | 36927 ft | 500 kts | 14° |
| 2026-05-08 02:23 | 33.44903 | -80.18613 | 36939 ft | 500 kts | 14° |
| 2026-05-08 02:24 | 33.51084 | -80.14882 | 36951 ft | 499 kts | 14° |
| 2026-05-08 02:24 | 33.57301 | -80.11122 | 36949 ft | 499 kts | 14° |
| 2026-05-08 02:25 | 33.63502 | -80.07321 | 36942 ft | 504 kts | 18° |
| 2026-05-08 02:25 | 33.66476 | -80.04964 | 36924 ft | 520 kts | 28° |
| 2026-05-08 02:25 | 33.69227 | -80.02183 | 36931 ft | 525 kts | 30° |
| 2026-05-08 02:26 | 33.74677 | -79.96308 | 36922 ft | 526 kts | 31° |
| 2026-05-08 02:26 | 33.80116 | -79.90439 | 36926 ft | 525 kts | 31° |
| 2026-05-08 02:27 | 33.85590 | -79.84641 | 36921 ft | 523 kts | 30° |
| 2026-05-08 02:27 | 33.91080 | -79.78863 | 36908 ft | 523 kts | 30° |
| 2026-05-08 02:28 | 33.96551 | -79.73094 | 36921 ft | 522 kts | 30° |
| 2026-05-08 02:28 | 34.02012 | -79.67316 | 36935 ft | 522 kts | 30° |
| 2026-05-08 02:29 | 34.07474 | -79.61523 | 36944 ft | 522 kts | 30° |
| 2026-05-08 02:29 | 34.12900 | -79.55759 | 36947 ft | 522 kts | 30° |
| 2026-05-08 02:30 | 34.18356 | -79.49953 | 36949 ft | 522 kts | 30° |
| 2026-05-08 02:30 | 34.23790 | -79.44162 | 36955 ft | 523 kts | 30° |
| 2026-05-08 02:31 | 34.29241 | -79.38338 | 36957 ft | 523 kts | 30° |
| 2026-05-08 02:31 | 34.34702 | -79.32491 | 36948 ft | 523 kts | 31° |
| 2026-05-08 02:32 | 34.40158 | -79.26640 | 36938 ft | 524 kts | 31° |
| 2026-05-08 02:32 | 34.42969 | -79.23877 | 36921 ft | 513 kts | 23° |
| 2026-05-08 02:32 | 34.45928 | -79.21681 | 36947 ft | 496 kts | 14° |
| 2026-05-08 02:33 | 34.52096 | -79.17975 | 36962 ft | 494 kts | 12° |
| 2026-05-08 02:33 | 34.58288 | -79.14317 | 36974 ft | 496 kts | 13° |
| 2026-05-08 02:34 | 34.64495 | -79.10572 | 36971 ft | 498 kts | 13° |
| 2026-05-08 02:34 | 34.70696 | -79.06776 | 36974 ft | 500 kts | 14° |
| 2026-05-08 02:35 | 34.76910 | -79.02955 | 36964 ft | 501 kts | 14° |
| 2026-05-08 02:35 | 34.83103 | -78.99143 | 36982 ft | 502 kts | 14° |
| 2026-05-08 02:36 | 34.89353 | -78.95293 | 36999 ft | 502 kts | 14° |
| 2026-05-08 02:36 | 34.95594 | -78.91442 | 37001 ft | 502 kts | 14° |
| 2026-05-08 02:37 | 35.01829 | -78.87588 | 36999 ft | 502 kts | 13° |
| 2026-05-08 02:37 | 35.06223 | -78.84868 | 37000 ft | 502 kts | 13° |
| 2026-05-08 02:38 | 35.12446 | -78.81011 | 36962 ft | 501 kts | 13° |
| 2026-05-08 02:38 | 35.18623 | -78.77175 | 36960 ft | 500 kts | 13° |
| 2026-05-08 02:39 | 35.24819 | -78.73322 | 36986 ft | 499 kts | 13° |
| 2026-05-08 02:39 | 35.31020 | -78.69459 | 36994 ft | 498 kts | 13° |
| 2026-05-08 02:40 | 35.37158 | -78.65628 | 37000 ft | 497 kts | 13° |
| 2026-05-08 02:40 | 35.43326 | -78.61773 | 36999 ft | 497 kts | 12° |
| 2026-05-08 02:41 | 35.49451 | -78.57938 | 36977 ft | 496 kts | 12° |
| 2026-05-08 02:41 | 35.55606 | -78.54077 | 36979 ft | 497 kts | 12° |
| 2026-05-08 02:42 | 35.61772 | -78.50203 | 36981 ft | 497 kts | 12° |
| 2026-05-08 02:42 | 35.67939 | -78.46320 | 36977 ft | 498 kts | 12° |
| 2026-05-08 02:43 | 35.74117 | -78.42425 | 36975 ft | 500 kts | 12° |
| 2026-05-08 02:43 | 35.80321 | -78.38508 | 36992 ft | 501 kts | 12° |
| 2026-05-08 02:44 | 35.86526 | -78.34584 | 37005 ft | 502 kts | 12° |
| 2026-05-08 02:44 | 35.92709 | -78.30666 | 37006 ft | 503 kts | 12° |
| 2026-05-08 02:45 | 35.98952 | -78.26701 | 37012 ft | 504 kts | 12° |
| 2026-05-08 02:45 | 36.05201 | -78.22725 | 37017 ft | 505 kts | 12° |
| 2026-05-08 02:46 | 36.11411 | -78.18766 | 37008 ft | 505 kts | 12° |
| 2026-05-08 02:46 | 36.17666 | -78.14771 | 36999 ft | 505 kts | 12° |
| 2026-05-08 02:47 | 36.22860 | -78.11449 | 36983 ft | 505 kts | 12° |
| 2026-05-08 02:47 | 36.29104 | -78.07448 | 36979 ft | 505 kts | 12° |
| 2026-05-08 02:48 | 36.35347 | -78.03442 | 36974 ft | 504 kts | 12° |
| 2026-05-08 02:48 | 36.41622 | -77.99850 | 36999 ft | 488 kts | 5° |
| 2026-05-08 02:49 | 36.47955 | -77.96960 | 37004 ft | 483 kts | 3° |
| 2026-05-08 02:49 | 36.54252 | -77.94153 | 37031 ft | 484 kts | 4° |
| 2026-05-08 02:50 | 36.60591 | -77.91251 | 37042 ft | 486 kts | 4° |
| 2026-05-08 02:50 | 36.66929 | -77.88295 | 37005 ft | 487 kts | 4° |
| 2026-05-08 02:51 | 36.73279 | -77.85316 | 37005 ft | 488 kts | 4° |
| 2026-05-08 02:51 | 36.79655 | -77.82327 | 36571 ft | 494 kts | 4° |
| 2026-05-08 02:52 | 36.82827 | -77.80841 | 36039 ft | 492 kts | 4° |
| 2026-05-08 02:52 | 36.86036 | -77.79328 | 35433 ft | 492 kts | 4° |
| 2026-05-08 02:52 | 36.89255 | -77.77811 | 34778 ft | 493 kts | 4° |
| 2026-05-08 02:52 | 36.92476 | -77.76295 | 34104 ft | 495 kts | 4° |
| 2026-05-08 02:53 | 36.95706 | -77.74776 | 33334 ft | 497 kts | 4° |
| 2026-05-08 02:53 | 36.98907 | -77.73267 | 32605 ft | 497 kts | 5° |
| 2026-05-08 02:53 | 37.02148 | -77.71737 | 31876 ft | 498 kts | 5° |
| 2026-05-08 02:53 | 37.05393 | -77.70203 | 31130 ft | 499 kts | 5° |
| 2026-05-08 02:54 | 37.08646 | -77.68663 | 30534 ft | 497 kts | 6° |
| 2026-05-08 02:54 | 37.11863 | -77.67133 | 29955 ft | 494 kts | 6° |
| 2026-05-08 02:54 | 37.15064 | -77.65609 | 29340 ft | 489 kts | 7° |
| 2026-05-08 02:54 | 37.18239 | -77.64096 | 28757 ft | 483 kts | 7° |
| 2026-05-08 02:55 | 37.21365 | -77.62608 | 28210 ft | 477 kts | 7° |
| 2026-05-08 02:55 | 37.27513 | -77.59685 | 27132 ft | 467 kts | 7° |
| 2026-05-08 02:55 | 37.30545 | -77.58244 | 26595 ft | 462 kts | 8° |
| 2026-05-08 02:56 | 37.33504 | -77.56836 | 26079 ft | 458 kts | 8° |
| 2026-05-08 02:56 | 37.36472 | -77.55423 | 25560 ft | 454 kts | 8° |
| 2026-05-08 02:56 | 37.39415 | -77.54021 | 25049 ft | 450 kts | 8° |
| 2026-05-08 02:56 | 37.42332 | -77.52630 | 24525 ft | 447 kts | 9° |
| 2026-05-08 02:57 | 37.45233 | -77.51246 | 23995 ft | 444 kts | 9° |
| 2026-05-08 02:57 | 37.48117 | -77.49869 | 23456 ft | 442 kts | 9° |
| 2026-05-08 02:57 | 37.50983 | -77.48498 | 22870 ft | 439 kts | 9° |
| 2026-05-08 02:57 | 37.53823 | -77.47137 | 22321 ft | 435 kts | 10° |
| 2026-05-08 02:58 | 37.56601 | -77.45801 | 22068 ft | 424 kts | 10° |
| 2026-05-08 02:58 | 37.59324 | -77.44516 | 21861 ft | 410 kts | 7° |
| 2026-05-08 02:58 | 37.62033 | -77.43552 | 21442 ft | 401 kts | 2° |
| 2026-05-08 02:58 | 37.64744 | -77.42774 | 21063 ft | 397 kts | 1° |
| 2026-05-08 02:59 | 37.67452 | -77.42028 | 20688 ft | 397 kts | 1° |
| 2026-05-08 02:59 | 37.70150 | -77.41253 | 20293 ft | 397 kts | 2° |
| 2026-05-08 02:59 | 37.72837 | -77.40440 | 19901 ft | 397 kts | 3° |
| 2026-05-08 02:59 | 37.75522 | -77.39609 | 19525 ft | 396 kts | 3° |
| 2026-05-08 03:00 | 37.78158 | -77.38788 | 19142 ft | 394 kts | 4° |
| 2026-05-08 03:00 | 37.80850 | -77.37952 | 18753 ft | 392 kts | 4° |
| 2026-05-08 03:00 | 37.83463 | -77.37144 | 18371 ft | 391 kts | 4° |
| 2026-05-08 03:00 | 37.86100 | -77.36328 | 17976 ft | 388 kts | 4° |
| 2026-05-08 03:01 | 37.88712 | -77.35517 | 17575 ft | 385 kts | 4° |
| 2026-05-08 03:01 | 37.91310 | -77.34714 | 17186 ft | 381 kts | 4° |
| 2026-05-08 03:01 | 37.93876 | -77.33924 | 16821 ft | 378 kts | 5° |
| 2026-05-08 03:01 | 37.96426 | -77.33141 | 16456 ft | 375 kts | 5° |
| 2026-05-08 03:02 | 37.98954 | -77.32364 | 16096 ft | 372 kts | 5° |
| 2026-05-08 03:02 | 38.01465 | -77.31592 | 15727 ft | 370 kts | 5° |
| 2026-05-08 03:02 | 38.03936 | -77.30831 | 15377 ft | 369 kts | 5° |
| 2026-05-08 03:02 | 38.06427 | -77.30063 | 15013 ft | 367 kts | 6° |
| 2026-05-08 03:03 | 38.08906 | -77.29293 | 14661 ft | 366 kts | 6° |
| 2026-05-08 03:03 | 38.11373 | -77.28518 | 14302 ft | 364 kts | 6° |
| 2026-05-08 03:03 | 38.13832 | -77.27744 | 13957 ft | 363 kts | 7° |
| 2026-05-08 03:03 | 38.16280 | -77.26973 | 13577 ft | 362 kts | 7° |
| 2026-05-08 03:04 | 38.18724 | -77.26205 | 13189 ft | 361 kts | 7° |
| 2026-05-08 03:04 | 38.21128 | -77.25429 | 12856 ft | 359 kts | 8° |
| 2026-05-08 03:04 | 38.23515 | -77.24546 | 12571 ft | 353 kts | 10° |
| 2026-05-08 03:04 | 38.25849 | -77.23639 | 12291 ft | 347 kts | 10° |
| 2026-05-08 03:05 | 38.28136 | -77.22748 | 12027 ft | 342 kts | 10° |
| 2026-05-08 03:05 | 38.30406 | -77.21876 | 11761 ft | 339 kts | 10° |
| 2026-05-08 03:05 | 38.32665 | -77.21017 | 11501 ft | 336 kts | 10° |
| 2026-05-08 03:05 | 38.34894 | -77.20172 | 11249 ft | 334 kts | 10° |
| 2026-05-08 03:06 | 38.37114 | -77.19330 | 11009 ft | 330 kts | 10° |
| 2026-05-08 03:06 | 38.39284 | -77.18496 | 10899 ft | 320 kts | 10° |
| 2026-05-08 03:06 | 38.41376 | -77.17684 | 10796 ft | 309 kts | 10° |
| 2026-05-08 03:06 | 38.43397 | -77.16900 | 10694 ft | 298 kts | 9° |
| 2026-05-08 03:07 | 38.45336 | -77.16151 | 10603 ft | 293 kts | 9° |
| 2026-05-08 03:07 | 38.47281 | -77.15402 | 10516 ft | 290 kts | 9° |
| 2026-05-08 03:07 | 38.49205 | -77.14661 | 10426 ft | 288 kts | 9° |
| 2026-05-08 03:07 | 38.51122 | -77.13922 | 10338 ft | 286 kts | 9° |
| 2026-05-08 03:08 | 38.53025 | -77.13188 | 10248 ft | 285 kts | 9° |
| 2026-05-08 03:08 | 38.54922 | -77.12454 | 10156 ft | 284 kts | 10° |
| 2026-05-08 03:08 | 38.56816 | -77.11721 | 10029 ft | 284 kts | 10° |
| 2026-05-08 03:08 | 38.58689 | -77.10999 | 9793 ft | 290 kts | 10° |
| 2026-05-08 03:09 | 38.60651 | -77.10246 | 9486 ft | 293 kts | 10° |
| 2026-05-08 03:09 | 38.62602 | -77.09493 | 9173 ft | 290 kts | 11° |
| 2026-05-08 03:09 | 38.64530 | -77.08748 | 8867 ft | 287 kts | 11° |
| 2026-05-08 03:09 | 38.66438 | -77.08011 | 8567 ft | 284 kts | 11° |
| 2026-05-08 03:10 | 38.68319 | -77.07286 | 8285 ft | 280 kts | 11° |
| 2026-05-08 03:10 | 38.70178 | -77.06840 | 8012 ft | 272 kts | 0° |
| 2026-05-08 03:10 | 38.72045 | -77.06674 | 7743 ft | 267 kts | 358° |
| 2026-05-08 03:10 | 38.73894 | -77.06532 | 7477 ft | 264 kts | 359° |
| 2026-05-08 03:11 | 38.75723 | -77.06426 | 7230 ft | 260 kts | 351° |
| 2026-05-08 03:11 | 38.77426 | -77.07017 | 6990 ft | 251 kts | 330° |
| 2026-05-08 03:11 | 38.78906 | -77.08175 | 6747 ft | 248 kts | 325° |
| 2026-05-08 03:11 | 38.80340 | -77.09375 | 6486 ft | 245 kts | 325° |
| 2026-05-08 03:12 | 38.81765 | -77.10559 | 6241 ft | 243 kts | 326° |
| 2026-05-08 03:12 | 38.83173 | -77.11742 | 6066 ft | 241 kts | 322° |
| 2026-05-08 03:12 | 38.84431 | -77.13150 | 6001 ft | 239 kts | 315° |
| 2026-05-08 03:12 | 38.85607 | -77.14645 | 5825 ft | 237 kts | 314° |
| 2026-05-08 03:13 | 38.86759 | -77.16123 | 5672 ft | 231 kts | 314° |
| 2026-05-08 03:13 | 38.87880 | -77.17549 | 5463 ft | 227 kts | 315° |
| 2026-05-08 03:13 | 38.89007 | -77.18967 | 5207 ft | 227 kts | 315° |
| 2026-05-08 03:13 | 38.90128 | -77.20371 | 4942 ft | 223 kts | 315° |
| 2026-05-08 03:14 | 38.91238 | -77.21757 | 4497 ft | 222 kts | 315° |
| 2026-05-08 03:14 | 38.92358 | -77.23118 | 4160 ft | 218 kts | 321° |
| 2026-05-08 03:14 | 38.93760 | -77.23719 | 3905 ft | 217 kts | 1° |
| 2026-05-08 03:14 | 38.95119 | -77.22945 | 3693 ft | 222 kts | 40° |
| 2026-05-08 03:15 | 38.95823 | -77.21147 | 3305 ft | 235 kts | 76° |
| 2026-05-08 03:15 | 38.96029 | -77.19063 | 3044 ft | 235 kts | 81° |
| 2026-05-08 03:15 | 38.95909 | -77.16978 | 3104 ft | 245 kts | 105° |
| 2026-05-08 03:15 | 38.95165 | -77.14963 | 2702 ft | 253 kts | 124° |
| 2026-05-08 03:16 | 38.94018 | -77.13246 | 2285 ft | 251 kts | 138° |
| 2026-05-08 03:16 | 38.92736 | -77.11773 | 1942 ft | 243 kts | 142° |
| 2026-05-08 03:16 | 38.91559 | -77.10359 | 1806 ft | 223 kts | 133° |
| 2026-05-08 03:16 | 38.90763 | -77.08712 | 1497 ft | 212 kts | 112° |
| 2026-05-08 03:17 | 38.90233 | -77.07022 | 1321 ft | 196 kts | 123° |
| 2026-05-08 03:17 | 38.89291 | -77.05939 | 982 ft | 180 kts | 149° |
| 2026-05-08 03:17 | 38.88370 | -77.04918 | 607 ft | 170 kts | 130° |
| 2026-05-08 03:17 | 38.87553 | -77.04042 | 427 ft | 142 kts | 169° |
| 2026-05-08 03:18 | 38.86563 | -77.03911 | 124 ft | 147 kts | 175° |
| 2026-05-08 03:18 | 38.85581 | -77.03817 | 28 ft | 130 kts | 174° |
| 2026-05-08 03:18 | 38.84885 | -77.03748 | 23 ft | 69 kts | 175° |
| 2026-05-08 03:18 | 38.84603 | -77.03721 | 23 ft | 23 kts | 175° |
| 2026-05-08 03:19 | 38.84426 | -77.03727 | 25 ft | 15 kts | 205° |
| 2026-05-08 03:19 | 38.84399 | -77.03818 | 24 ft | 12 kts | 301° |
| 2026-05-08 03:19 | 38.84475 | -77.03850 | 24 ft | 12 kts | 354° |
| 2026-05-08 03:19 | 38.84555 | -77.03856 | 25 ft | 11 kts | 356° |
| 2026-05-08 03:20 | 38.84632 | -77.03863 | 25 ft | 11 kts | 355° |
| 2026-05-08 03:20 | 38.84705 | -77.03876 | 24 ft | 11 kts | 337° |
| 2026-05-08 03:20 | 38.84757 | -77.03937 | 23 ft | 10 kts | 337° |
| 2026-05-08 03:20 | 38.84823 | -77.03945 | 27 ft | 9 kts | 356° |
| 2026-05-08 03:21 | 38.84888 | -77.03951 | 23 ft | 10 kts | 356° |
| 2026-05-08 03:21 | 38.84974 | -77.03958 | 25 ft | 15 kts | 356° |
| 2026-05-08 03:21 | 38.85098 | -77.03969 | 25 ft | 19 kts | 354° |
| 2026-05-08 03:21 | 38.85233 | -77.03984 | 25 ft | 19 kts | 356° |
| 2026-05-08 03:22 | 38.85363 | -77.03997 | 24 ft | 19 kts | 355° |
| 2026-05-08 03:22 | 38.85480 | -77.04008 | 25 ft | 11 kts | 355° |
| 2026-05-08 03:22 | 38.85528 | -77.04027 | 23 ft | 6 kts | 329° |
| 2026-05-08 03:22 | 38.85540 | -77.04076 | 26 ft | 6 kts | 261° |
| 2026-05-08 03:23 | 38.85529 | -77.04128 | 23 ft | 6 kts | 252° |
| 2026-05-08 03:23 | 38.85515 | -77.04178 | 23 ft | 6 kts | 251° |
| 2026-05-08 03:23 | 38.85505 | -77.04225 | 23 ft | 5 kts | 262° |
| 2026-05-08 03:23 | 38.85522 | -77.04258 | 25 ft | 5 kts | 325° |
| 2026-05-08 03:24 | 38.85545 | -77.04269 | 27 ft | 3 kts | 341° |
| 2026-05-08 03:24 | 38.85555 | -77.04274 | 25 ft | 0 kts | 339° |